createdAt,value
2023-02-18T00:00:29.335Z,15.98
2023-02-18T00:02:56.294Z,14.95
2023-02-18T00:05:23.128Z,15.10
2023-02-18T00:07:50.179Z,14.60
2023-02-18T00:10:17.914Z,15.93
2023-02-18T00:12:45.114Z,16.20
2023-02-18T00:15:12.388Z,14.95
2023-02-18T00:17:39.502Z,15.52
2023-02-18T00:20:07.727Z,13.52
2023-02-18T00:22:34.827Z,15.03
2023-02-18T00:25:01.597Z,15.60
2023-02-18T00:27:28.794Z,14.55
2023-02-18T00:29:55.825Z,12.80
2023-02-18T00:32:22.823Z,13.93
2023-02-18T00:34:49.654Z,13.80
2023-02-18T00:37:16.526Z,13.60
2023-02-18T00:39:44.315Z,12.60
2023-02-18T00:42:11.245Z,11.65
2023-02-18T00:44:38.108Z,11.82
2023-02-18T00:47:04.988Z,11.80
2023-02-18T00:49:31.792Z,11.75
2023-02-18T00:51:58.860Z,11.57
2023-02-18T00:54:25.809Z,12.20
2023-02-18T00:56:52.553Z,10.13
2023-02-18T00:59:19.394Z,11.17
2023-02-18T01:01:46.214Z,9.18
2023-02-18T01:04:13.228Z,10.15
2023-02-18T01:06:40.040Z,10.02
2023-02-18T01:09:07.143Z,10.23
2023-02-18T01:11:34.059Z,10.47
2023-02-18T01:14:00.941Z,8.88
2023-02-18T01:16:30.028Z,10.98
2023-02-18T01:18:56.919Z,11.02
2023-02-18T01:21:26.089Z,11.00
2023-02-18T01:23:53.073Z,10.90
2023-02-18T01:26:19.987Z,10.60
2023-02-18T01:28:46.882Z,10.70
2023-02-18T01:31:15.195Z,10.75
2023-02-18T01:33:42.767Z,11.38
2023-02-18T01:36:11.688Z,11.53
2023-02-18T01:38:38.941Z,11.48
2023-02-18T01:41:06.340Z,12.98
2023-02-18T01:43:33.711Z,12.85
2023-02-18T01:46:15.889Z,12.48
2023-02-18T01:48:51.830Z,13.27
2023-02-18T01:51:29.089Z,13.77
2023-02-18T01:53:57.610Z,13.75
2023-02-18T01:56:31.900Z,13.10
2023-02-18T01:59:01.991Z,14.10
2023-02-18T02:01:31.171Z,14.37
2023-02-18T02:03:58.228Z,12.48
2023-02-18T02:06:26.322Z,14.57
2023-02-18T02:08:58.414Z,12.95
2023-02-18T02:11:34.259Z,14.82
2023-02-18T02:14:11.808Z,13.87
2023-02-18T02:16:54.910Z,13.43
2023-02-18T02:19:40.435Z,12.52
2023-02-18T02:22:19.156Z,12.27
2023-02-18T02:24:59.047Z,11.68
2023-02-18T02:27:43.989Z,13.73
2023-02-18T02:30:31.980Z,14.30
2023-02-18T02:32:58.699Z,14.75
2023-02-18T02:35:29.910Z,14.38
2023-02-18T02:38:04.745Z,14.43
2023-02-18T02:40:46.241Z,14.20
2023-02-18T02:43:48.687Z,13.80
2023-02-18T02:46:41.546Z,13.25
2023-02-18T02:49:19.336Z,11.55
2023-02-18T02:51:48.881Z,12.60
2023-02-18T02:54:22.511Z,13.30
2023-02-18T02:56:50.240Z,13.18
2023-02-18T02:59:25.403Z,11.85
2023-02-18T03:02:22.731Z,12.52
2023-02-18T03:05:08.418Z,12.07
2023-02-18T03:07:47.156Z,12.97
2023-02-18T03:10:33.132Z,11.60
2023-02-18T03:13:37.010Z,10.43
2023-02-18T03:16:19.912Z,9.85
2023-02-18T03:18:50.030Z,10.23
2023-02-18T03:21:21.491Z,7.40
2023-02-18T03:24:02.549Z,7.50
2023-02-18T03:26:32.092Z,6.22
2023-02-18T03:29:02.953Z,6.57
2023-02-18T03:31:32.791Z,5.93
2023-02-18T03:34:16.401Z,5.40
2023-02-18T03:36:44.246Z,6.47
2023-02-18T03:39:19.277Z,7.10
2023-02-18T03:41:47.241Z,5.07
2023-02-18T03:44:14.339Z,6.13
2023-02-18T03:46:44.417Z,5.67
2023-02-18T03:49:14.026Z,5.10
2023-02-18T03:51:42.114Z,5.13
2023-02-18T03:54:09.560Z,5.25
2023-02-18T03:56:37.259Z,5.95
2023-02-18T03:59:04.597Z,5.33
2023-02-18T04:01:31.654Z,5.70
2023-02-18T04:03:58.632Z,5.63
2023-02-18T04:06:25.489Z,5.20
2023-02-18T04:08:52.282Z,5.45
2023-02-18T04:11:19.182Z,4.83
2023-02-18T04:13:46.057Z,5.72
2023-02-18T04:16:13.318Z,5.65
2023-02-18T04:18:40.392Z,5.25
2023-02-18T04:21:07.228Z,4.70
2023-02-18T04:23:34.304Z,5.13
2023-02-18T04:26:01.127Z,5.63
2023-02-18T04:28:27.922Z,5.03
2023-02-18T04:30:54.770Z,4.70
2023-02-18T04:33:21.517Z,5.20
2023-02-18T04:35:48.321Z,4.63
2023-02-18T04:38:16.010Z,4.50
2023-02-18T04:40:42.863Z,4.50
2023-02-18T04:43:09.812Z,3.90
2023-02-18T04:45:36.655Z,4.35
2023-02-18T04:48:03.583Z,4.27
2023-02-18T04:50:30.517Z,4.63
2023-02-18T04:52:57.336Z,4.28
2023-02-18T04:55:24.106Z,5.13
2023-02-18T04:57:50.994Z,4.38
2023-02-18T05:00:19.729Z,4.33
2023-02-18T05:02:47.127Z,4.30
2023-02-18T05:05:14.602Z,4.40
2023-02-18T05:07:42.400Z,4.13
2023-02-18T05:10:11.429Z,4.57
2023-02-18T05:12:38.419Z,4.97
2023-02-18T05:15:05.749Z,5.45
2023-02-18T05:17:32.733Z,5.50
2023-02-18T05:19:59.572Z,5.88
2023-02-18T05:22:26.691Z,6.53
2023-02-18T05:24:53.466Z,7.03
2023-02-18T05:27:20.341Z,7.63
2023-02-18T05:29:47.162Z,8.00
2023-02-18T05:32:14.040Z,6.47
2023-02-18T05:34:41.031Z,6.00
2023-02-18T05:37:07.981Z,6.13
2023-02-18T05:39:34.715Z,5.88
2023-02-18T05:42:01.563Z,5.85
2023-02-18T05:44:31.266Z,5.28
2023-02-18T05:47:09.899Z,6.05
2023-02-18T05:49:39.215Z,5.83
2023-02-18T05:52:06.440Z,5.97
2023-02-18T05:54:34.054Z,6.78
2023-02-18T05:57:01.168Z,6.75
2023-02-18T05:59:28.391Z,7.35
2023-02-18T06:01:55.683Z,7.27
2023-02-18T06:04:22.626Z,8.20
2023-02-18T06:06:49.499Z,7.00
2023-02-18T06:09:16.557Z,7.57
2023-02-18T06:11:43.435Z,7.53
2023-02-18T06:14:10.350Z,6.93
2023-02-18T06:16:37.269Z,6.78
2023-02-18T06:19:04.137Z,6.50
2023-02-18T06:21:30.987Z,7.45
2023-02-18T06:23:57.709Z,7.03
2023-02-18T06:26:24.744Z,7.43
2023-02-18T06:28:51.668Z,7.72
2023-02-18T06:31:18.636Z,7.68
2023-02-18T06:33:45.670Z,6.43
2023-02-18T06:36:13.510Z,6.38
2023-02-18T06:38:42.742Z,6.70
2023-02-18T06:41:10.921Z,7.38
2023-02-18T06:43:38.004Z,8.38
2023-02-18T06:46:05.562Z,7.70
2023-02-18T06:48:33.082Z,7.18
2023-02-18T06:51:00.137Z,7.23
2023-02-18T06:53:26.984Z,7.95
2023-02-18T06:55:53.737Z,8.00
2023-02-18T06:58:20.611Z,8.30
2023-02-18T07:00:47.410Z,8.88
2023-02-18T07:03:15.098Z,7.67
2023-02-18T07:05:42.393Z,7.78
2023-02-18T07:08:09.911Z,7.38
2023-02-18T07:10:36.883Z,8.70
2023-02-18T07:13:03.965Z,8.98
2023-02-18T07:15:30.843Z,7.80
2023-02-18T07:17:57.771Z,8.65
2023-02-18T07:20:25.465Z,8.43
2023-02-18T07:22:52.735Z,6.85
2023-02-18T07:25:22.105Z,7.15
2023-02-18T07:27:50.137Z,5.83
2023-02-18T07:30:17.360Z,5.70
2023-02-18T07:32:44.174Z,6.60
2023-02-18T07:35:14.190Z,5.70
2023-02-18T07:37:45.163Z,5.63
2023-02-18T07:40:14.415Z,5.73
2023-02-18T07:42:41.254Z,5.30
2023-02-18T07:45:08.862Z,5.22
2023-02-18T07:47:35.743Z,5.03
2023-02-18T07:50:02.839Z,4.57
2023-02-18T07:52:29.696Z,5.27
2023-02-18T07:54:56.432Z,4.40
2023-02-18T07:57:23.309Z,3.50
2023-02-18T07:59:50.209Z,4.22
2023-02-18T08:02:22.800Z,3.30
2023-02-18T08:04:50.098Z,3.20
2023-02-18T08:07:18.500Z,2.90
2023-02-18T08:09:45.211Z,3.00
2023-02-18T08:12:12.051Z,3.10
2023-02-18T08:14:38.891Z,3.28
2023-02-18T08:17:05.646Z,2.27
2023-02-18T08:19:32.584Z,2.95
2023-02-18T08:22:03.115Z,2.45
2023-02-18T08:24:30.027Z,3.05
2023-02-18T08:27:01.543Z,3.05
2023-02-18T08:29:29.276Z,3.00
2023-02-18T08:31:58.029Z,3.13
2023-02-18T08:34:25.088Z,2.63
2023-02-18T08:36:51.999Z,2.70
2023-02-18T08:39:18.749Z,2.70
2023-02-18T08:41:45.621Z,2.53
2023-02-18T08:44:12.459Z,3.10
2023-02-18T08:46:39.267Z,2.60
2023-02-18T08:49:06.742Z,2.30
2023-02-18T08:51:34.070Z,2.35
2023-02-18T08:54:00.854Z,2.30
2023-02-18T08:56:27.748Z,2.92
2023-02-18T08:58:54.491Z,2.50
2023-02-18T09:01:21.403Z,2.25
2023-02-18T09:03:48.777Z,2.38
2023-02-18T09:06:16.119Z,2.23
2023-02-18T09:08:43.144Z,2.38
2023-02-18T09:11:11.404Z,2.38
2023-02-18T09:13:38.948Z,2.53
2023-02-18T09:16:15.515Z,3.10
2023-02-18T09:18:42.610Z,2.10
2023-02-18T09:21:11.655Z,2.88
2023-02-18T09:23:39.450Z,3.25
2023-02-18T09:26:08.437Z,3.13
2023-02-18T09:28:36.544Z,2.50
2023-02-18T09:31:14.036Z,2.63
2023-02-18T09:33:45.889Z,3.08
2023-02-18T09:36:13.392Z,2.90
2023-02-18T09:38:40.166Z,3.25
2023-02-18T09:41:14.018Z,2.90
2023-02-18T09:43:47.909Z,3.07
2023-02-18T09:46:24.446Z,3.30
2023-02-18T09:48:52.760Z,3.58
2023-02-18T09:51:20.071Z,2.80
2023-02-18T09:53:48.098Z,3.60
2023-02-18T09:56:20.529Z,4.20
2023-02-18T09:58:49.089Z,3.80
2023-02-18T10:01:36.939Z,3.80
2023-02-18T10:04:26.003Z,3.30
2023-02-18T10:06:54.552Z,3.40
2023-02-18T10:09:21.631Z,3.40
2023-02-18T10:11:55.373Z,3.33
2023-02-18T10:14:22.377Z,3.20
2023-02-18T10:16:51.204Z,3.03
2023-02-18T10:19:33.327Z,3.55
2023-02-18T10:22:03.878Z,2.97
2023-02-18T10:24:32.451Z,3.08
2023-02-18T10:26:59.798Z,2.88
2023-02-18T10:29:29.204Z,3.22
2023-02-18T10:32:21.342Z,2.78
2023-02-18T10:34:53.767Z,3.43
2023-02-18T10:38:01.045Z,2.53
2023-02-18T10:40:49.728Z,3.10
2023-02-18T10:43:49.993Z,3.20
2023-02-18T10:46:43.412Z,2.50
2023-02-18T10:49:16.358Z,2.90
2023-02-18T10:51:51.240Z,2.72
2023-02-18T10:54:18.260Z,2.67
2023-02-18T10:56:50.159Z,3.10
2023-02-18T10:59:23.156Z,3.03
2023-02-18T11:02:19.115Z,2.87
2023-02-18T11:04:46.779Z,2.83
2023-02-18T11:07:23.502Z,3.15
2023-02-18T11:09:54.258Z,3.38
2023-02-18T11:12:25.811Z,3.53
2023-02-18T11:15:16.306Z,3.33
2023-02-18T11:17:46.910Z,3.40
2023-02-18T11:20:33.657Z,3.15
2023-02-18T11:23:06.646Z,3.45
2023-02-18T11:25:39.316Z,3.10
2023-02-18T11:28:18.098Z,3.20
2023-02-18T11:30:49.121Z,2.30
2023-02-18T11:33:21.959Z,3.40
2023-02-18T11:35:56.766Z,3.22
2023-02-18T11:38:49.325Z,3.20
2023-02-18T11:41:19.938Z,2.73
2023-02-18T11:43:50.195Z,3.30
2023-02-18T11:46:23.494Z,3.88
2023-02-18T11:48:51.817Z,3.28
2023-02-18T11:51:39.801Z,2.97
2023-02-18T11:54:25.271Z,2.80
2023-02-18T11:57:05.767Z,3.13
2023-02-18T11:59:36.361Z,2.85
2023-02-18T12:02:25.932Z,2.97
2023-02-18T12:05:00.237Z,3.00
2023-02-18T12:07:32.566Z,2.93
2023-02-18T12:10:10.414Z,3.00
2023-02-18T12:12:48.241Z,2.80
2023-02-18T12:15:20.740Z,2.95
2023-02-18T12:18:10.657Z,2.00
2023-02-18T12:20:43.756Z,2.27
2023-02-18T12:23:29.585Z,2.10
2023-02-18T12:26:32.595Z,2.20
2023-02-18T12:29:28.166Z,2.40
2023-02-18T12:32:05.152Z,2.40
2023-02-18T12:35:10.515Z,2.10
2023-02-18T12:37:43.392Z,1.95
2023-02-18T12:40:29.215Z,2.42
2023-02-18T12:43:05.443Z,2.35
2023-02-18T12:45:54.122Z,2.70
2023-02-18T12:48:33.199Z,2.30
2023-02-18T12:51:11.812Z,2.42
2023-02-18T12:53:50.473Z,2.35
2023-02-18T12:56:20.373Z,2.92
2023-02-18T12:59:08.510Z,2.60
2023-02-18T13:01:53.405Z,2.70
2023-02-18T13:04:36.806Z,2.60
2023-02-18T13:07:34.278Z,2.80
2023-02-18T13:10:07.451Z,2.72
2023-02-18T13:12:49.614Z,2.70
2023-02-18T13:15:25.518Z,3.03
2023-02-18T13:17:57.483Z,2.67
2023-02-18T13:20:40.580Z,3.25
2023-02-18T13:23:17.873Z,3.08
2023-02-18T13:25:45.453Z,3.33
2023-02-18T13:28:30.737Z,2.93
2023-02-18T13:31:25.897Z,2.90
2023-02-18T13:34:34.294Z,3.38
2023-02-18T13:37:10.407Z,3.30
2023-02-18T13:39:39.004Z,2.50
2023-02-18T13:42:25.612Z,3.00
2023-02-18T13:44:55.395Z,2.92
2023-02-18T13:47:40.606Z,2.90
2023-02-18T13:50:26.737Z,2.80
2023-02-18T13:53:13.953Z,2.90
2023-02-18T13:56:04.073Z,2.83
2023-02-18T13:58:52.732Z,2.75
2023-02-18T14:01:39.172Z,2.90
2023-02-18T14:04:41.811Z,2.80
2023-02-18T14:07:36.518Z,2.75
2023-02-18T14:10:07.702Z,2.80
2023-02-18T14:12:41.385Z,2.72
2023-02-18T14:15:20.408Z,2.50
2023-02-18T14:18:11.814Z,2.60
2023-02-18T14:20:38.680Z,2.72
2023-02-18T14:23:17.473Z,2.27
2023-02-18T14:25:52.410Z,2.55
2023-02-18T14:28:34.529Z,3.05
2023-02-18T14:31:12.295Z,2.40
2023-02-18T14:34:00.959Z,2.63
2023-02-18T14:36:49.343Z,2.33
2023-02-18T14:39:35.939Z,2.40
2023-02-18T14:42:21.383Z,2.70
2023-02-18T14:45:05.266Z,3.08
2023-02-18T14:47:50.076Z,2.70
2023-02-18T14:50:19.777Z,3.20
2023-02-18T14:52:49.531Z,2.90
2023-02-18T14:55:22.695Z,3.40
2023-02-18T14:58:30.156Z,3.63
2023-02-18T15:00:57.507Z,3.70
2023-02-18T15:03:28.339Z,3.47
2023-02-18T15:05:55.221Z,3.40
2023-02-18T15:08:25.323Z,3.00
2023-02-18T15:10:59.883Z,3.33
2023-02-18T15:13:46.311Z,3.20
2023-02-18T15:16:18.629Z,3.20
2023-02-18T15:18:52.962Z,2.92
2023-02-18T15:21:37.022Z,2.97
2023-02-18T15:24:33.626Z,3.55
2023-02-18T15:27:05.105Z,3.53
2023-02-18T15:29:36.221Z,4.00
2023-02-18T15:32:16.460Z,3.47
2023-02-18T15:34:45.968Z,3.35
2023-02-18T15:37:15.216Z,3.63
2023-02-18T15:39:43.386Z,3.30
2023-02-18T15:42:35.793Z,3.60
2023-02-18T15:45:04.486Z,3.47
2023-02-18T15:47:32.897Z,3.40
2023-02-18T15:50:03.031Z,3.30
2023-02-18T15:52:33.127Z,3.45
2023-02-18T15:55:34.180Z,3.80
2023-02-18T15:58:04.597Z,3.20
2023-02-18T16:00:41.968Z,3.90
2023-02-18T16:03:11.764Z,3.50
2023-02-18T16:05:42.216Z,3.67
2023-02-18T16:08:27.002Z,3.63
2023-02-18T16:11:03.233Z,3.63
2023-02-18T16:13:31.393Z,3.72
2023-02-18T16:16:01.120Z,3.55
2023-02-18T16:18:30.296Z,3.80
2023-02-18T16:21:01.525Z,4.10
2023-02-18T16:23:41.561Z,3.33
2023-02-18T16:26:22.204Z,3.55
2023-02-18T16:28:51.930Z,4.15
2023-02-18T16:31:21.550Z,3.83
2023-02-18T16:33:49.779Z,3.27
2023-02-18T16:36:17.581Z,3.95
2023-02-18T16:38:45.414Z,4.35
2023-02-18T16:41:14.197Z,3.75
2023-02-18T16:43:42.816Z,3.17
2023-02-18T16:46:21.285Z,3.53
2023-02-18T16:48:50.981Z,3.90
2023-02-18T16:51:48.528Z,4.10
2023-02-18T16:54:16.047Z,3.40
2023-02-18T16:56:44.353Z,3.72
2023-02-18T16:59:11.754Z,4.60
2023-02-18T17:01:44.896Z,5.00
2023-02-18T17:04:17.496Z,4.80
2023-02-18T17:06:48.608Z,4.93
2023-02-18T17:09:22.209Z,4.95
2023-02-18T17:11:54.936Z,5.37
2023-02-18T17:14:23.471Z,5.45
2023-02-18T17:16:53.197Z,5.30
2023-02-18T17:19:20.480Z,5.50
2023-02-18T17:21:48.841Z,5.50
2023-02-18T17:24:18.459Z,5.20
2023-02-18T17:26:45.374Z,5.95
2023-02-18T17:29:12.386Z,5.68
2023-02-18T17:31:44.394Z,5.93
2023-02-18T17:34:19.074Z,5.57
2023-02-18T17:36:45.875Z,5.23
2023-02-18T17:39:14.156Z,5.38
2023-02-18T17:41:41.951Z,5.90
2023-02-18T17:44:23.496Z,5.65
2023-02-18T17:46:50.579Z,6.10
2023-02-18T17:49:17.502Z,6.53
2023-02-18T17:51:44.596Z,6.88
2023-02-18T17:54:17.296Z,8.00
2023-02-18T17:56:45.050Z,8.10
2023-02-18T17:59:12.399Z,7.72
2023-02-18T18:01:39.449Z,7.83
2023-02-18T18:04:15.293Z,7.93
2023-02-18T18:06:42.831Z,8.32
2023-02-18T18:09:10.061Z,8.18
2023-02-18T18:11:37.677Z,8.32
2023-02-18T18:14:04.702Z,8.87
2023-02-18T18:16:31.604Z,6.97
2023-02-18T18:18:58.488Z,7.10
2023-02-18T18:21:34.554Z,6.03
2023-02-18T18:24:02.220Z,6.55
2023-02-18T18:26:30.725Z,6.23
2023-02-18T18:28:57.703Z,6.80
2023-02-18T18:31:24.991Z,7.00
2023-02-18T18:33:53.598Z,7.15
2023-02-18T18:36:24.380Z,7.90
2023-02-18T18:38:51.890Z,6.80
2023-02-18T18:41:21.467Z,7.10
2023-02-18T18:43:49.893Z,7.05
2023-02-18T18:46:17.490Z,7.53
2023-02-18T18:48:44.612Z,6.93
2023-02-18T18:51:16.647Z,7.20
2023-02-18T18:53:43.687Z,6.75
2023-02-18T18:56:12.334Z,7.95
2023-02-18T18:58:39.678Z,7.13
2023-02-18T19:01:18.826Z,6.75
2023-02-18T19:03:47.024Z,7.80
2023-02-18T19:06:16.315Z,7.43
2023-02-18T19:08:43.706Z,7.75
2023-02-18T19:11:12.827Z,8.07
2023-02-18T19:13:40.552Z,8.38
2023-02-18T19:16:22.265Z,8.37
2023-02-18T19:18:49.355Z,8.52
2023-02-18T19:21:16.858Z,8.50
2023-02-18T19:23:43.857Z,8.05
2023-02-18T19:26:11.301Z,8.68
2023-02-18T19:28:38.285Z,7.93
2023-02-18T19:31:12.020Z,7.97
2023-02-18T19:33:39.908Z,8.75
2023-02-18T19:36:09.847Z,9.07
2023-02-18T19:38:37.523Z,9.18
2023-02-18T19:41:14.594Z,8.73
2023-02-18T19:43:42.830Z,9.40
2023-02-18T19:46:15.210Z,10.05
2023-02-18T19:48:42.287Z,9.45
2023-02-18T19:51:10.132Z,9.65
2023-02-18T19:53:37.541Z,9.20
2023-02-18T19:56:07.964Z,10.35
2023-02-18T19:58:35.945Z,9.40
2023-02-18T20:01:03.374Z,10.73
2023-02-18T20:03:30.390Z,9.93
2023-02-18T20:05:57.191Z,10.50
2023-02-18T20:08:23.997Z,10.30
2023-02-18T20:11:00.196Z,9.85
2023-02-18T20:13:33.989Z,9.52
2023-02-18T20:16:00.783Z,9.95
2023-02-18T20:18:28.288Z,8.57
2023-02-18T20:20:55.234Z,9.23
2023-02-18T20:23:22.136Z,9.25
2023-02-18T20:25:49.008Z,9.93
2023-02-18T20:28:15.977Z,10.52
2023-02-18T20:30:44.240Z,10.30
2023-02-18T20:33:11.169Z,10.77
2023-02-18T20:35:37.996Z,10.68
2023-02-18T20:38:04.814Z,9.07
2023-02-18T20:40:31.731Z,9.10
2023-02-18T20:42:58.542Z,9.53
2023-02-18T20:45:25.438Z,9.27
2023-02-18T20:47:52.306Z,10.15
2023-02-18T20:50:19.177Z,10.05
2023-02-18T20:52:46.032Z,9.40
2023-02-18T20:55:12.884Z,9.67
2023-02-18T20:57:39.710Z,10.60
2023-02-18T21:00:07.696Z,7.80
2023-02-18T21:02:34.682Z,9.57
2023-02-18T21:05:01.471Z,8.18
2023-02-18T21:07:28.339Z,7.80
2023-02-18T21:09:55.147Z,7.97
2023-02-18T21:12:21.914Z,7.22
2023-02-18T21:14:48.723Z,7.18
2023-02-18T21:17:15.693Z,8.85
2023-02-18T21:19:42.545Z,9.67
2023-02-18T21:22:09.596Z,10.27
2023-02-18T21:24:36.593Z,9.13
2023-02-18T21:27:03.476Z,8.75
2023-02-18T21:29:30.500Z,9.68
2023-02-18T21:31:57.311Z,10.70
2023-02-18T21:34:25.975Z,9.75
2023-02-18T21:36:52.802Z,9.20
2023-02-18T21:39:19.659Z,9.52
2023-02-18T21:41:46.437Z,9.25
2023-02-18T21:44:13.226Z,9.60
2023-02-18T21:46:40.207Z,11.15
2023-02-18T21:49:07.178Z,9.93
2023-02-18T21:51:56.378Z,10.13
2023-02-18T21:54:29.376Z,9.73
2023-02-18T21:56:57.725Z,11.10
2023-02-18T21:59:29.174Z,9.85
2023-02-18T22:01:59.765Z,11.43
2023-02-18T22:04:28.045Z,11.93
2023-02-18T22:06:55.282Z,11.18
2023-02-18T22:09:22.661Z,11.47
2023-02-18T22:11:49.735Z,11.68
2023-02-18T22:14:17.305Z,11.27
2023-02-18T22:16:44.261Z,11.13
2023-02-18T22:19:12.478Z,11.18
2023-02-18T22:21:39.777Z,9.93
2023-02-18T22:24:07.924Z,11.02
2023-02-18T22:26:35.245Z,11.50
2023-02-18T22:29:02.363Z,11.20
2023-02-18T22:31:30.601Z,11.80
2023-02-18T22:33:59.538Z,12.40
2023-02-18T22:36:28.144Z,10.25
2023-02-18T22:38:55.972Z,11.02
2023-02-18T22:41:24.347Z,11.73
2023-02-18T22:44:03.216Z,11.57
2023-02-18T22:46:31.862Z,11.80
2023-02-18T22:48:59.807Z,11.25
2023-02-18T22:51:31.217Z,11.40
2023-02-18T22:53:59.731Z,9.18
2023-02-18T22:56:28.755Z,11.32
2023-02-18T22:58:57.436Z,12.53
2023-02-18T23:01:33.958Z,12.55
2023-02-18T23:04:06.945Z,11.15
2023-02-18T23:06:34.942Z,11.35
2023-02-18T23:09:02.138Z,10.45
2023-02-18T23:11:28.904Z,10.13
2023-02-18T23:14:14.343Z,10.48
2023-02-18T23:17:00.779Z,8.75
2023-02-18T23:19:29.991Z,8.70
2023-02-18T23:21:57.111Z,8.60
2023-02-18T23:24:23.965Z,10.03
2023-02-18T23:26:51.253Z,9.50
2023-02-18T23:29:18.263Z,9.80
2023-02-18T23:31:45.753Z,8.95
2023-02-18T23:34:15.230Z,7.78
2023-02-18T23:36:43.153Z,9.33
2023-02-18T23:39:13.392Z,9.68
2023-02-18T23:41:40.358Z,9.57
2023-02-18T23:44:09.818Z,8.77
2023-02-18T23:46:37.717Z,9.13
2023-02-18T23:49:05.379Z,9.20
2023-02-18T23:51:32.760Z,9.60
2023-02-18T23:54:03.577Z,9.88
2023-02-18T23:56:30.724Z,9.27
2023-02-18T23:59:00.831Z,9.50
